Time;durP1;ratioP1;P1;durP2;ratioP2;P2;SDS_P1;SDS_P2;PMS_P1;PMS_P2;Temp;Humidity;BMP_temperature;BMP_pressure;BME280_temperature;BME280_humidity;BME280_pressure;Samples;Min_cycle;Max_cycle;Signal;HPM_P1;HPM_P2
2022/10/29 00:01:23;;;;;;;7.20;3.50;;;14.50;99.90;;;;;;5031893;28;20223;-63
2022/10/29 00:03:51;;;;;;;8.20;3.63;;;14.50;99.90;;;;;;5031813;28;20209;-64
2022/10/29 00:06:18;;;;;;;8.57;3.30;;;14.40;99.90;;;;;;5034957;28;20300;-64
2022/10/29 00:08:45;;;;;;;9.57;3.60;;;14.30;99.90;;;;;;5035604;28;20276;-63
2022/10/29 00:11:14;;;;;;;9.63;3.70;;;14.20;99.90;;;;;;5035519;28;20237;-66
2022/10/29 00:13:41;;;;;;;9.50;4.00;;;14.20;99.90;;;;;;5035787;28;20238;-64
2022/10/29 00:16:10;;;;;;;12.33;3.70;;;14.20;99.90;;;;;;5035078;28;20206;-64
2022/10/29 00:18:37;;;;;;;7.37;3.63;;;14.20;99.90;;;;;;5035535;28;20210;-63
2022/10/29 00:21:07;;;;;;;12.67;3.83;;;14.20;99.90;;;;;;5035372;28;20230;-63
2022/10/29 00:23:34;;;;;;;9.17;3.83;;;14.10;99.90;;;;;;5035412;28;20214;-63
2022/10/29 00:26:02;;;;;;;9.23;3.90;;;14.10;99.90;;;;;;5034630;28;20257;-63
2022/10/29 00:28:29;;;;;;;10.93;3.63;;;14.00;99.90;;;;;;5035422;28;20210;-63
2022/10/29 00:30:56;;;;;;;8.77;3.40;;;14.00;99.90;;;;;;5035313;28;20222;-64
2022/10/29 00:33:23;;;;;;;10.50;3.57;;;14.00;99.90;;;;;;5035303;28;20229;-64
2022/10/29 00:35:57;;;;;;;9.53;4.23;;;14.00;99.90;;;;;;5034602;28;20213;-63
2022/10/29 00:38:26;;;;;;;13.23;3.60;;;14.00;99.90;;;;;;5034983;28;20206;-63
2022/10/29 00:40:53;;;;;;;11.13;3.77;;;14.00;99.90;;;;;;5035018;28;20250;-63
2022/10/29 00:43:21;;;;;;;8.60;3.73;;;14.00;99.90;;;;;;5035178;28;20217;-63
2022/10/29 00:45:51;;;;;;;13.33;3.90;;;14.10;99.90;;;;;;5034563;28;20210;-63
2022/10/29 00:48:18;;;;;;;8.00;3.73;;;14.10;99.90;;;;;;5035015;28;20215;-63
2022/10/29 00:50:46;;;;;;;8.90;3.07;;;14.10;99.90;;;;;;5034739;28;20612;-64
2022/10/29 00:53:13;;;;;;;11.83;3.90;;;14.10;99.90;;;;;;5034879;28;20590;-63
2022/10/29 00:55:41;;;;;;;12.83;3.80;;;14.00;99.90;;;;;;5034550;28;20202;-64
2022/10/29 00:58:10;;;;;;;9.57;3.50;;;13.90;99.90;;;;;;5035083;28;20203;-64
2022/10/29 01:00:38;;;;;;;13.73;3.77;;;13.90;99.90;;;;;;5034789;28;20697;-64
2022/10/29 01:03:04;;;;;;;9.67;3.70;;;13.90;99.90;;;;;;5035016;28;20203;-63
2022/10/29 01:05:33;;;;;;;9.43;3.37;;;13.90;99.90;;;;;;5034119;28;20585;-64
2022/10/29 01:08:00;;;;;;;12.63;3.63;;;13.90;99.90;;;;;;5034884;28;20195;-63
2022/10/29 01:10:35;;;;;;;8.87;3.77;;;13.90;99.90;;;;;;5034582;28;20230;-63
2022/10/29 01:13:18;;;;;;;12.57;3.60;;;14.00;99.90;;;;;;5034761;28;20213;-63
2022/10/29 01:15:53;;;;;;;9.37;3.70;;;14.00;99.90;;;;;;5033735;28;20696;-63
2022/10/29 01:18:23;;;;;;;9.37;3.73;;;14.00;99.90;;;;;;5034735;28;20206;-64
2022/10/29 01:21:23;;;;;;;12.33;5.43;;;14.00;99.90;;;;;;5034512;28;20226;-63
2022/10/29 01:24:26;;;;;;;10.27;4.00;;;13.90;99.90;;;;;;5034448;28;20210;-64
2022/10/29 01:27:31;;;;;;;9.07;3.70;;;14.00;99.90;;;;;;5033740;28;20678;-63
2022/10/29 01:30:09;;;;;;;13.40;3.83;;;13.90;99.90;;;;;;5034204;28;20225;-63
2022/10/29 01:32:49;;;;;;;8.93;3.70;;;13.90;99.90;;;;;;5034232;28;20213;-63
2022/10/29 01:35:24;;;;;;;9.67;3.30;;;13.90;99.90;;;;;;5034131;28;20626;-63
2022/10/29 01:38:03;;;;;;;10.03;3.53;;;13.90;99.90;;;;;;5033808;28;20212;-63
2022/10/29 01:40:36;;;;;;;10.13;3.80;;;13.90;99.90;;;;;;5034074;28;20233;-63
2022/10/29 01:43:07;;;;;;;8.57;3.40;;;14.00;99.90;;;;;;5033977;28;20529;-63
2022/10/29 01:45:38;;;;;;;14.60;4.00;;;14.00;99.90;;;;;;5033326;28;20203;-63
2022/10/29 01:48:10;;;;;;;10.20;3.73;;;14.00;99.90;;;;;;5033942;28;20217;-64
2022/10/29 01:50:39;;;;;;;15.40;3.83;;;14.00;99.90;;;;;;5057268;22;20942;-58
2022/10/29 01:53:07;;;;;;;10.23;3.77;;;14.00;99.90;;;;;;5044445;28;20209;-58
2022/10/29 01:55:34;;;;;;;10.13;3.67;;;14.20;99.90;;;;;;5052953;28;20217;-58
2022/10/29 01:58:02;;;;;;;9.87;3.80;;;14.20;99.90;;;;;;5053639;28;20704;-58
2022/10/29 02:00:34;;;;;;;9.43;3.53;;;14.20;99.90;;;;;;5053614;28;20256;-58
2022/10/29 02:03:15;;;;;;;8.53;3.80;;;14.30;99.90;;;;;;5053516;28;20212;-58
2022/10/29 02:05:51;;;;;;;10.60;4.13;;;14.20;99.90;;;;;;5052838;28;20206;-57
2022/10/29 02:08:27;;;;;;;11.20;4.00;;;14.20;99.90;;;;;;5053363;28;20208;-57
2022/10/29 02:10:58;;;;;;;9.00;3.93;;;14.10;99.90;;;;;;5053450;28;20240;-57
2022/10/29 02:13:31;;;;;;;8.43;3.40;;;14.10;99.90;;;;;;5053837;28;20228;-58
2022/10/29 02:16:02;;;;;;;12.43;3.73;;;14.00;99.90;;;;;;5052882;28;20214;-58
2022/10/29 02:18:30;;;;;;;11.80;3.93;;;14.10;99.90;;;;;;5053388;28;20736;-58
2022/10/29 02:20:57;;;;;;;7.30;3.73;;;14.00;99.90;;;;;;5053382;28;20237;-58
2022/10/29 02:23:23;;;;;;;10.43;3.90;;;14.10;99.90;;;;;;5053290;28;20213;-58
2022/10/29 02:25:50;;;;;;;12.77;3.90;;;14.00;99.90;;;;;;5052586;28;20293;-58
2022/10/29 02:28:17;;;;;;;9.93;3.70;;;14.00;99.90;;;;;;5052866;28;20693;-58
2022/10/29 02:30:44;;;;;;;7.80;3.33;;;14.10;99.90;;;;;;5052852;28;20237;-58
2022/10/29 02:33:11;;;;;;;10.87;3.50;;;14.10;99.90;;;;;;5052950;28;20214;-58
2022/10/29 02:35:39;;;;;;;8.23;3.77;;;14.10;99.90;;;;;;5052509;28;20232;-58
2022/10/29 02:38:06;;;;;;;7.13;3.50;;;14.20;99.90;;;;;;5053045;28;20581;-58
2022/10/29 02:40:32;;;;;;;11.43;4.00;;;14.20;99.90;;;;;;5052826;28;20205;-58
2022/10/29 02:42:59;;;;;;;9.97;4.00;;;14.30;99.90;;;;;;5052850;28;20209;-58
2022/10/29 02:45:26;;;;;;;11.00;3.60;;;14.30;99.90;;;;;;5052608;28;20217;-58
2022/10/29 02:47:52;;;;;;;13.67;4.00;;;14.30;99.90;;;;;;5052140;28;20213;-58
2022/10/29 02:50:19;;;;;;;9.63;3.57;;;14.20;99.90;;;;;;5052497;28;20221;-58
2022/10/29 02:52:47;;;;;;;16.37;4.33;;;14.30;99.90;;;;;;5052757;28;20202;-58
2022/10/29 02:55:14;;;;;;;15.73;4.10;;;14.30;99.90;;;;;;5052694;28;20585;-58
2022/10/29 02:57:43;;;;;;;10.27;3.67;;;14.30;99.90;;;;;;5051915;28;20213;-58
2022/10/29 03:00:11;;;;;;;10.23;3.70;;;14.40;99.90;;;;;;5052418;28;20204;-58
2022/10/29 03:02:38;;;;;;;9.40;3.43;;;14.40;99.90;;;;;;5052453;28;20237;-58
2022/10/29 03:05:05;;;;;;;8.73;3.50;;;14.50;99.90;;;;;;5052394;28;20681;-58
2022/10/29 03:07:35;;;;;;;10.03;3.83;;;14.50;99.90;;;;;;5051748;28;20213;-58
2022/10/29 03:10:03;;;;;;;13.67;3.80;;;14.60;99.90;;;;;;5052340;28;20253;-58
2022/10/29 03:12:30;;;;;;;7.57;3.40;;;14.50;99.90;;;;;;5052214;28;20233;-58
2022/10/29 03:14:57;;;;;;;10.07;3.30;;;14.50;99.90;;;;;;5052493;28;20209;-58
2022/10/29 03:17:24;;;;;;;10.80;3.73;;;14.50;99.90;;;;;;5051593;28;20210;-58
2022/10/29 03:19:51;;;;;;;9.00;3.80;;;14.60;99.90;;;;;;5052282;28;20216;-58
2022/10/29 03:22:17;;;;;;;7.53;3.70;;;14.70;99.90;;;;;;5052056;28;20225;-58
2022/10/29 03:24:44;;;;;;;8.83;3.77;;;14.70;99.90;;;;;;5052131;28;20311;-58
2022/10/29 03:27:12;;;;;;;12.07;4.23;;;14.80;99.90;;;;;;5051307;28;20213;-58
2022/10/29 03:29:39;;;;;;;11.37;4.43;;;14.80;99.90;;;;;;5052083;28;20208;-58
2022/10/29 03:32:06;;;;;;;10.27;3.87;;;14.90;99.90;;;;;;5052017;28;20607;-58
2022/10/29 03:34:32;;;;;;;12.57;4.33;;;14.90;99.90;;;;;;5052017;28;20210;-58
2022/10/29 03:36:59;;;;;;;11.77;3.80;;;14.90;99.90;;;;;;5051260;28;20201;-58
2022/10/29 03:39:26;;;;;;;12.57;4.10;;;14.90;99.90;;;;;;5050903;28;20259;-57
2022/10/29 03:41:52;;;;;;;11.27;4.30;;;15.00;99.90;;;;;;5051724;28;20252;-58
2022/10/29 03:44:20;;;;;;;13.90;4.40;;;15.00;99.90;;;;;;5052131;28;20205;-58
2022/10/29 03:46:47;;;;;;;6.60;3.50;;;15.10;99.90;;;;;;5051525;28;20789;-58
2022/10/29 03:49:14;;;;;;;10.03;3.90;;;15.10;99.90;;;;;;5051910;28;20205;-59
2022/10/29 03:51:41;;;;;;;11.77;4.10;;;15.10;99.90;;;;;;5051757;28;20614;-55
2022/10/29 03:54:07;;;;;;;6.60;3.63;;;15.10;99.90;;;;;;5051652;28;20210;-58
2022/10/29 03:56:34;;;;;;;13.50;3.97;;;15.10;99.90;;;;;;5051367;28;20209;-59
2022/10/29 03:59:01;;;;;;;8.70;3.37;;;15.10;99.90;;;;;;5051523;28;20624;-58
2022/10/29 04:01:29;;;;;;;7.43;3.50;;;15.10;99.90;;;;;;5051629;28;20233;-59
2022/10/29 04:03:56;;;;;;;10.77;3.97;;;15.10;99.90;;;;;;5051883;28;20201;-59
2022/10/29 04:06:22;;;;;;;8.97;3.60;;;15.20;99.90;;;;;;5051018;28;20216;-58
2022/10/29 04:08:49;;;;;;;7.87;3.23;;;15.20;99.90;;;;;;5051434;28;20209;-58
2022/10/29 04:11:16;;;;;;;9.95;4.20;;;15.20;99.90;;;;;;5051717;28;20244;-58
2022/10/29 04:13:42;;;;;;;11.60;4.47;;;15.20;99.90;;;;;;5051779;28;20653;-58
2022/10/29 04:16:09;;;;;;;9.40;3.50;;;15.20;99.90;;;;;;5050896;28;20210;-58
2022/10/29 04:18:37;;;;;;;8.53;4.07;;;15.30;99.90;;;;;;5051652;28;20227;-58
2022/10/29 04:21:04;;;;;;;8.70;3.50;;;15.30;99.90;;;;;;5051676;28;20225;-58
2022/10/29 04:23:31;;;;;;;11.73;3.57;;;15.40;99.90;;;;;;5051361;28;20209;-57
2022/10/29 04:25:58;;;;;;;10.37;3.80;;;15.40;99.90;;;;;;5050779;28;20205;-58
2022/10/29 04:28:25;;;;;;;14.80;4.70;;;15.40;99.90;;;;;;5051591;28;20205;-58
2022/10/29 04:30:52;;;;;;;12.17;4.10;;;15.40;99.90;;;;;;5051216;28;20232;-58
2022/10/29 04:33:19;;;;;;;8.60;3.73;;;15.40;99.90;;;;;;5051332;28;20368;-58
2022/10/29 04:35:53;;;;;;;11.00;3.83;;;15.40;99.90;;;;;;5051183;28;20589;-58
2022/10/29 04:38:20;;;;;;;14.23;4.38;;;15.40;99.90;;;;;;5051264;28;20682;-58
2022/10/29 04:40:47;;;;;;;10.10;3.83;;;15.40;99.90;;;;;;5051125;28;20222;-58
2022/10/29 04:43:14;;;;;;;11.17;3.77;;;15.30;99.90;;;;;;5051306;28;20210;-58
2022/10/29 04:45:41;;;;;;;9.20;4.40;;;15.30;99.90;;;;;;5051179;28;20236;-58
2022/10/29 04:48:08;;;;;;;8.77;4.03;;;15.40;99.90;;;;;;5050534;28;20609;-58
2022/10/29 04:50:37;;;;;;;9.73;3.72;;;15.30;99.90;;;;;;5051690;28;20713;-58
2022/10/29 04:53:06;;;;;;;10.40;3.78;;;15.40;99.90;;;;;;5055112;28;20202;-58
2022/10/29 04:55:37;;;;;;;8.20;3.87;;;15.50;99.90;;;;;;5055028;28;20213;-58
2022/10/29 04:58:03;;;;;;;7.40;3.97;;;15.50;99.90;;;;;;5054360;28;20206;-58
2022/10/29 05:00:30;;;;;;;11.02;3.72;;;15.30;99.90;;;;;;5054657;28;20620;-58
2022/10/29 05:02:57;;;;;;;11.40;3.90;;;15.30;99.90;;;;;;5054572;28;20217;-58
2022/10/29 05:05:24;;;;;;;11.27;3.90;;;15.30;99.90;;;;;;5054796;28;20212;-58
2022/10/29 05:07:56;;;;;;;11.00;3.87;;;15.30;99.90;;;;;;5054181;28;20206;-58
2022/10/29 05:10:26;;;;;;;11.25;3.47;;;15.20;99.90;;;;;;5054349;28;20713;-58
2022/10/29 05:12:57;;;;;;;11.57;4.10;;;15.20;99.90;;;;;;5054558;28;20210;-58
2022/10/29 05:15:23;;;;;;;12.60;4.37;;;15.10;99.90;;;;;;5054322;28;20201;-58
2022/10/29 05:17:50;;;;;;;12.07;3.80;;;15.10;99.90;;;;;;5053989;28;20701;-58
2022/10/29 05:20:17;;;;;;;10.33;4.90;;;15.00;99.90;;;;;;5054726;28;20677;-58
2022/10/29 05:22:44;;;;;;;10.67;3.93;;;15.00;99.90;;;;;;5054464;28;20209;-58
2022/10/29 05:25:10;;;;;;;9.80;4.50;;;15.00;99.90;;;;;;5054336;28;20685;-58
2022/10/29 05:27:38;;;;;;;9.20;4.20;;;14.90;99.90;;;;;;5053700;28;20213;-58
2022/10/29 05:30:06;;;;;;;15.03;4.30;;;14.90;99.90;;;;;;5054078;28;20209;-58
2022/10/29 05:32:33;;;;;;;11.23;4.83;;;14.80;99.90;;;;;;5054323;28;20600;-58
2022/10/29 05:35:00;;;;;;;10.63;4.97;;;14.80;99.90;;;;;;5054252;28;20212;-58
2022/10/29 05:37:27;;;;;;;12.33;4.77;;;14.80;99.90;;;;;;5053767;28;20202;-58
2022/10/29 05:39:54;;;;;;;9.17;5.07;;;14.70;99.90;;;;;;5054214;28;20244;-58
2022/10/29 05:42:21;;;;;;;12.93;4.60;;;14.70;99.90;;;;;;5053833;28;20229;-58
2022/10/29 05:44:49;;;;;;;10.90;4.23;;;14.60;99.90;;;;;;5053884;28;20673;-58
2022/10/29 05:47:15;;;;;;;10.47;4.33;;;14.60;99.90;;;;;;5053695;28;20202;-58
2022/10/29 05:49:42;;;;;;;13.13;4.30;;;14.60;99.90;;;;;;5054312;28;20205;-57
2022/10/29 05:52:09;;;;;;;11.57;4.50;;;14.60;99.90;;;;;;5053879;28;20237;-58
2022/10/29 05:54:35;;;;;;;11.17;4.17;;;14.50;99.90;;;;;;5054082;28;20209;-58
2022/10/29 05:57:02;;;;;;;12.23;4.40;;;14.50;99.90;;;;;;5053558;28;20209;-58
2022/10/29 05:59:29;;;;;;;10.47;4.20;;;14.40;99.90;;;;;;5053722;28;20669;-58
2022/10/29 06:01:57;;;;;;;11.03;4.20;;;14.40;99.90;;;;;;5053169;28;20218;-58
2022/10/29 06:04:24;;;;;;;9.07;4.07;;;14.40;99.90;;;;;;5054105;28;20657;-57
2022/10/29 06:06:51;;;;;;;12.17;4.17;;;14.30;99.90;;;;;;5053254;28;20636;-57
2022/10/29 06:09:18;;;;;;;11.80;4.27;;;14.30;99.90;;;;;;5054098;28;20585;-57
2022/10/29 06:11:45;;;;;;;9.40;4.47;;;14.30;99.90;;;;;;5053569;28;20693;-58
2022/10/29 06:14:11;;;;;;;14.17;5.00;;;14.30;99.90;;;;;;5053758;28;20263;-58
2022/10/29 06:16:39;;;;;;;14.33;4.93;;;14.30;99.90;;;;;;5053245;28;20217;-58
2022/10/29 06:19:07;;;;;;;14.67;4.10;;;14.30;99.90;;;;;;5053656;28;20205;-58
2022/10/29 06:21:34;;;;;;;11.97;4.10;;;14.30;99.90;;;;;;5053121;28;20225;-58
2022/10/29 06:24:01;;;;;;;17.27;4.60;;;14.30;99.90;;;;;;5053640;28;20209;-58
2022/10/29 06:26:27;;;;;;;10.27;4.43;;;14.30;99.90;;;;;;5052564;28;20212;-58
2022/10/29 06:28:54;;;;;;;11.47;3.90;;;14.40;99.90;;;;;;5053269;28;20212;-58
2022/10/29 06:31:21;;;;;;;14.60;4.10;;;14.40;99.90;;;;;;5053072;28;20229;-57
2022/10/29 06:33:47;;;;;;;16.87;4.10;;;14.50;99.90;;;;;;5052863;28;20665;-57
2022/10/29 06:36:15;;;;;;;10.37;4.30;;;14.50;99.90;;;;;;5052751;28;20209;-56
2022/10/29 06:38:42;;;;;;;10.77;4.20;;;14.60;99.90;;;;;;5053259;28;20209;-56
2022/10/29 06:41:09;;;;;;;10.70;4.13;;;14.60;99.90;;;;;;5053144;28;20689;-57
2022/10/29 06:43:36;;;;;;;8.63;4.00;;;14.70;99.90;;;;;;5053233;28;20358;-57
2022/10/29 06:46:02;;;;;;;9.90;5.17;;;14.80;99.90;;;;;;5052545;28;20213;-57
2022/10/29 06:48:29;;;;;;;11.57;4.30;;;15.00;99.90;;;;;;5053127;28;20412;-57
2022/10/29 06:50:58;;;;;;;12.20;4.13;;;15.10;99.90;;;;;;5052635;28;20261;-57
2022/10/29 06:53:26;;;;;;;7.73;4.13;;;15.30;99.90;;;;;;5052673;28;20288;-57
2022/10/29 06:55:53;;;;;;;12.97;4.33;;;15.40;99.90;;;;;;5052845;28;20202;-57
2022/10/29 06:58:21;;;;;;;8.97;4.07;;;15.60;99.90;;;;;;5052115;28;20214;-57
2022/10/29 07:00:48;;;;;;;9.05;4.00;;;15.70;99.90;;;;;;5052744;28;20724;-59
2022/10/29 07:03:15;;;;;;;12.33;5.53;;;15.80;99.90;;;;;;5052595;28;20209;-57
2022/10/29 07:05:42;;;;;;;22.73;11.75;;;15.90;99.90;;;;;;5052678;28;20210;-59
2022/10/29 07:08:09;;;;;;;11.48;5.75;;;15.90;99.90;;;;;;5051524;28;20217;-59
2022/10/29 07:10:38;;;;;;;13.35;4.68;;;16.00;99.90;;;;;;5052449;28;20283;-57
2022/10/29 07:13:05;;;;;;;9.15;4.32;;;16.00;99.90;;;;;;5052358;28;20205;-57
2022/10/29 07:15:32;;;;;;;11.33;4.97;;;16.10;99.90;;;;;;5052421;28;20221;-58
2022/10/29 07:18:00;;;;;;;7.20;4.57;;;16.20;99.90;;;;;;5051807;28;20221;-58
2022/10/29 07:20:27;;;;;;;9.68;5.88;;;16.20;99.90;;;;;;5052015;28;20256;-58
2022/10/29 07:22:56;;;;;;;15.43;6.40;;;16.20;99.90;;;;;;5052257;28;20208;-57
2022/10/29 07:25:23;;;;;;;12.05;5.03;;;16.20;99.90;;;;;;5052428;28;20205;-58
2022/10/29 07:27:51;;;;;;;15.00;4.80;;;16.20;99.90;;;;;;5051834;28;20216;-58
2022/10/29 07:30:20;;;;;;;10.63;4.22;;;16.20;99.90;;;;;;5051994;28;20315;-58
2022/10/29 07:32:47;;;;;;;13.35;4.20;;;16.30;99.90;;;;;;5051910;28;20252;-58
2022/10/29 07:35:14;;;;;;;13.63;4.05;;;16.30;99.90;;;;;;5052310;28;20555;-58
2022/10/29 07:37:41;;;;;;;10.40;3.80;;;16.20;99.90;;;;;;5050975;28;20208;-58
2022/10/29 07:40:09;;;;;;;11.10;3.70;;;16.10;99.90;;;;;;5051835;28;20614;-58
2022/10/29 07:42:36;;;;;;;8.77;3.60;;;16.30;99.90;;;;;;5051951;28;20627;-58
2022/10/29 07:45:05;;;;;;;14.57;4.13;;;16.20;99.90;;;;;;5051893;28;20209;-58
2022/10/29 07:47:31;;;;;;;11.52;4.03;;;16.30;99.90;;;;;;5051134;28;20209;-59
2022/10/29 07:49:58;;;;;;;9.27;4.53;;;16.40;99.90;;;;;;5052152;28;20213;-59
2022/10/29 07:52:25;;;;;;;14.93;4.65;;;16.60;99.90;;;;;;5068371;22;20404;-57
2022/10/29 07:54:52;;;;;;;13.57;4.40;;;16.60;99.90;;;;;;5049790;28;20209;-55
2022/10/29 07:57:21;;;;;;;8.18;4.25;;;16.80;99.90;;;;;;5052140;28;20225;-56
2022/10/29 07:59:49;;;;;;;15.82;4.20;;;17.00;99.90;;;;;;5052651;28;20213;-56
2022/10/29 08:02:17;;;;;;;10.85;4.13;;;17.20;99.90;;;;;;5052804;28;20275;-56
2022/10/29 08:04:44;;;;;;;12.52;4.00;;;17.50;99.90;;;;;;5052824;28;20201;-56
2022/10/29 08:07:11;;;;;;;9.77;3.72;;;17.80;99.90;;;;;;5051878;28;20285;-56
2022/10/29 08:09:39;;;;;;;13.55;4.15;;;17.90;99.90;;;;;;5052864;28;20233;-56
2022/10/29 08:12:07;;;;;;;7.97;3.97;;;18.00;99.90;;;;;;5052484;28;20313;-56
2022/10/29 08:14:34;;;;;;;9.98;3.97;;;18.10;99.90;;;;;;5052720;28;20201;-56
2022/10/29 08:17:00;;;;;;;12.50;4.70;;;18.20;99.90;;;;;;5051895;28;20627;-55
2022/10/29 08:19:29;;;;;;;13.35;4.60;;;18.20;99.90;;;;;;5052158;28;20201;-55
2022/10/29 08:21:56;;;;;;;11.23;4.22;;;18.20;99.90;;;;;;5052218;28;20229;-55
2022/10/29 08:24:23;;;;;;;12.70;4.07;;;18.20;99.90;;;;;;5052114;28;20219;-55
2022/10/29 08:26:51;;;;;;;12.90;4.28;;;18.20;99.90;;;;;;5054772;28;20210;-55
2022/10/29 08:29:17;;;;;;;10.45;4.40;;;18.20;99.90;;;;;;5056067;28;20217;-55
2022/10/29 08:31:44;;;;;;;11.95;4.75;;;18.10;99.90;;;;;;5056255;28;20233;-55
2022/10/29 08:34:11;;;;;;;10.45;4.40;;;18.00;99.90;;;;;;5055968;28;20213;-56
2022/10/29 08:36:41;;;;;;;9.65;3.90;;;18.10;99.90;;;;;;5055692;28;20688;-59
2022/10/29 08:39:08;;;;;;;12.50;4.22;;;18.20;99.90;;;;;;5055648;28;20217;-55
2022/10/29 08:41:52;;;;;;;13.18;4.20;;;18.40;99.90;;;;;;5055664;28;20225;-56
2022/10/29 08:44:46;;;;;;;17.45;4.65;;;18.50;99.90;;;;;;5055463;28;20336;-56
2022/10/29 08:47:17;;;;;;;9.48;3.45;;;18.80;99.90;;;;;;5055103;28;20223;-55
2022/10/29 08:49:50;;;;;;;11.00;4.05;;;19.20;99.90;;;;;;5055481;28;20205;-56
2022/10/29 08:52:23;;;;;;;13.48;3.85;;;19.40;99.90;;;;;;5055067;28;20229;-56
2022/10/29 08:54:55;;;;;;;11.40;3.90;;;19.70;99.90;;;;;;5055870;28;20479;-55
2022/10/29 08:57:25;;;;;;;15.98;4.00;;;19.90;99.90;;;;;;5055428;28;20190;-55
2022/10/29 09:00:08;;;;;;;9.25;4.13;;;20.10;99.90;;;;;;5055749;28;20208;-55
2022/10/29 09:02:34;;;;;;;10.88;4.00;;;20.40;99.90;;;;;;5055523;28;20717;-56
2022/10/29 09:05:01;;;;;;;13.65;4.05;;;20.60;99.90;;;;;;5055936;28;20213;-56
2022/10/29 09:07:44;;;;;;;11.38;4.15;;;20.80;99.90;;;;;;5055268;28;20212;-56
2022/10/29 09:10:19;;;;;;;11.43;3.42;;;21.10;99.90;;;;;;5055301;28;20209;-56
2022/10/29 09:13:09;;;;;;;9.75;4.05;;;21.30;99.90;;;;;;5055348;28;20225;-57
2022/10/29 09:16:03;;;;;;;15.55;3.70;;;21.40;99.90;;;;;;5055975;28;20248;-55
2022/10/29 09:18:46;;;;;;;11.02;3.88;;;21.60;99.90;;;;;;5055160;28;20205;-55
2022/10/29 09:21:26;;;;;;;13.15;3.80;;;21.70;99.90;;;;;;5055265;28;20257;-55
2022/10/29 09:24:03;;;;;;;12.82;3.92;;;21.70;99.90;;;;;;5055912;28;20205;-55
2022/10/29 09:26:34;;;;;;;9.93;3.50;;;21.70;99.90;;;;;;5055229;28;20205;-55
2022/10/29 09:29:18;;;;;;;10.20;3.65;;;21.60;99.90;;;;;;5055587;28;20233;-55
2022/10/29 09:31:48;;;;;;;18.65;3.90;;;21.50;99.90;;;;;;5055209;28;20225;-56
2022/10/29 09:34:22;;;;;;;10.98;3.40;;;21.50;99.90;;;;;;5055335;28;20584;-56
2022/10/29 09:36:49;;;;;;;12.57;3.38;;;21.40;99.90;;;;;;5055249;28;20224;-55
2022/10/29 09:39:25;;;;;;;10.27;3.40;;;21.30;99.90;;;;;;5055496;28;20209;-56
2022/10/29 09:41:54;;;;;;;10.85;3.70;;;21.10;99.90;;;;;;5056061;28;20229;-56
2022/10/29 09:44:24;;;;;;;10.93;3.50;;;21.10;99.90;;;;;;5055277;28;20681;-56
2022/10/29 09:47:05;;;;;;;12.20;3.15;;;21.00;99.90;;;;;;5055380;28;20212;-57
2022/10/29 09:49:47;;;;;;;9.57;3.22;;;20.80;99.90;;;;;;5054953;28;20220;-56
2022/10/29 09:52:17;;;;;;;9.98;3.55;;;20.80;99.90;;;;;;5055398;28;20241;-56
2022/10/29 09:54:48;;;;;;;11.18;3.67;;;21.00;99.90;;;;;;5055474;28;20217;-55
2022/10/29 09:57:19;;;;;;;11.40;3.25;;;21.10;99.90;;;;;;5054606;28;20205;-56
2022/10/29 09:59:49;;;;;;;8.70;3.30;;;21.20;99.90;;;;;;5055562;28;20671;-56
2022/10/29 10:02:26;;;;;;;12.27;3.03;;;21.30;99.90;;;;;;5055357;28;20222;-55
2022/10/29 10:04:59;;;;;;;12.85;3.45;;;21.30;99.90;;;;;;5055523;28;20205;-56
2022/10/29 10:07:26;;;;;;;9.18;3.50;;;21.50;99.90;;;;;;5054657;28;20205;-56
2022/10/29 10:09:56;;;;;;;12.45;3.55;;;21.50;99.90;;;;;;5055115;28;20212;-55
2022/10/29 10:12:26;;;;;;;11.30;3.05;;;21.60;99.90;;;;;;5054746;28;20229;-55
2022/10/29 10:15:05;;;;;;;12.35;3.20;;;21.80;99.90;;;;;;5054967;28;20297;-56
2022/10/29 10:17:58;;;;;;;11.93;3.33;;;22.00;99.90;;;;;;5053917;28;20283;-57
2022/10/29 10:20:31;;;;;;;8.55;3.25;;;22.10;99.90;;;;;;5054393;28;20591;-56
2022/10/29 10:22:58;;;;;;;9.55;2.80;;;22.30;99.90;;;;;;5054185;28;20209;-57
2022/10/29 10:25:38;;;;;;;8.95;2.70;;;22.50;99.90;;;;;;5053923;28;20213;-55
2022/10/29 10:28:17;;;;;;;6.90;2.90;;;22.80;99.90;;;;;;5053566;28;20209;-56
2022/10/29 10:30:44;;;;;;;10.90;3.20;;;23.00;99.90;;;;;;5054345;28;20245;-55
2022/10/29 10:33:22;;;;;;;9.85;2.92;;;23.10;99.90;;;;;;5054186;28;20304;-55
2022/10/29 10:35:49;;;;;;;12.50;3.45;;;23.10;99.90;;;;;;5054170;28;20557;-56
2022/10/29 10:38:16;;;;;;;9.32;3.10;;;23.30;99.90;;;;;;5053367;28;20275;-55
2022/10/29 10:40:53;;;;;;;11.48;3.17;;;23.40;99.90;;;;;;5053767;28;20304;-56
2022/10/29 10:43:24;;;;;;;10.90;3.13;;;23.50;99.90;;;;;;5052864;28;20217;-56
2022/10/29 10:45:56;;;;;;;8.73;3.58;;;23.60;99.90;;;;;;5046328;28;20650;-56
2022/10/29 10:48:25;;;;;;;10.98;3.78;;;23.60;99.90;;;;;;5033658;28;20202;-61
2022/10/29 10:51:07;;;;;;;9.43;3.20;;;23.80;99.90;;;;;;5051463;28;20217;-58
2022/10/29 10:53:35;;;;;;;9.98;3.25;;;23.80;99.90;;;;;;5053389;28;20229;-59
2022/10/29 10:56:03;;;;;;;11.60;3.33;;;23.90;99.90;;;;;;5053370;28;20205;-59
2022/10/29 10:58:35;;;;;;;10.75;3.30;;;24.00;99.90;;;;;;5052945;28;20221;-59
2022/10/29 11:01:05;;;;;;;13.43;4.10;;;24.00;99.90;;;;;;5054245;28;20229;-59
2022/10/29 11:03:37;;;;;;;11.70;3.65;;;24.10;99.90;;;;;;5053105;28;20712;-58
2022/10/29 11:06:08;;;;;;;12.07;3.70;;;24.20;99.90;;;;;;5053784;28;20221;-59
2022/10/29 11:08:42;;;;;;;9.25;3.58;;;24.30;99.90;;;;;;5053083;28;20228;-59
2022/10/29 11:11:15;;;;;;;9.68;3.40;;;24.50;99.90;;;;;;5053155;28;20225;-59
2022/10/29 11:13:43;;;;;;;11.88;3.80;;;24.60;99.90;;;;;;5052762;28;20338;-58
2022/10/29 11:16:16;;;;;;;13.25;4.88;;;24.70;99.90;;;;;;5053124;28;20721;-57
2022/10/29 11:18:50;;;;;;;9.75;3.33;;;24.80;99.90;;;;;;5053012;28;20205;-57
2022/10/29 11:21:22;;;;;;;15.93;3.97;;;24.90;99.90;;;;;;5052891;28;20236;-57
2022/10/29 11:23:58;;;;;;;7.93;3.45;;;24.90;99.90;;;;;;5053291;28;20197;-57
2022/10/29 11:26:32;;;;;;;8.07;3.17;;;24.80;99.90;;;;;;5052805;28;20209;-57
2022/10/29 11:29:05;;;;;;;14.02;3.30;;;24.90;99.90;;;;;;5052909;28;20705;-58
2022/10/29 11:31:39;;;;;;;8.73;3.42;;;24.90;99.90;;;;;;5052528;28;20681;-57
2022/10/29 11:34:13;;;;;;;11.32;3.08;;;25.00;99.90;;;;;;5052743;28;20232;-57
2022/10/29 11:36:43;;;;;;;9.13;3.10;;;25.10;99.90;;;;;;5052213;28;20568;-57
2022/10/29 11:39:17;;;;;;;13.35;3.38;;;25.20;99.90;;;;;;5052999;28;20556;-57
2022/10/29 11:41:54;;;;;;;8.82;3.00;;;25.20;99.90;;;;;;5052171;28;20571;-57
2022/10/29 11:44:21;;;;;;;11.00;3.70;;;25.20;99.90;;;;;;5052094;28;20293;-57
2022/10/29 11:47:03;;;;;;;12.27;3.30;;;25.30;99.90;;;;;;5051466;28;20254;-59
2022/10/29 11:49:54;;;;;;;11.45;3.92;;;25.30;99.90;;;;;;5033996;28;20715;-57
2022/10/29 11:52:31;;;;;;;14.63;3.63;;;25.40;99.90;;;;;;5031612;28;20729;-58
2022/10/29 11:55:14;;;;;;;12.02;3.97;;;25.60;99.90;;;;;;5032238;28;20210;-57
2022/10/29 11:57:52;;;;;;;10.18;3.53;;;25.70;99.90;;;;;;5031537;28;20214;-57
2022/10/29 12:00:20;;;;;;;5.85;3.30;;;25.90;99.90;;;;;;5030892;28;20245;-58
2022/10/29 12:03:09;;;;;;;9.55;3.70;;;26.00;99.90;;;;;;5032165;28;20237;-57
2022/10/29 12:05:41;;;;;;;12.55;3.17;;;25.90;99.90;;;;;;5032766;28;20206;-57
2022/10/29 12:08:25;;;;;;;16.52;3.97;;;26.00;99.90;;;;;;5032278;28;20924;-57
2022/10/29 12:10:59;;;;;;;9.93;3.53;;;26.00;99.90;;;;;;5033065;28;20265;-58
2022/10/29 12:13:39;;;;;;;7.28;3.90;;;26.10;99.90;;;;;;5032039;28;20222;-57
2022/10/29 12:16:19;;;;;;;15.10;4.10;;;26.30;99.90;;;;;;5032416;28;20312;-57
2022/10/29 12:18:51;;;;;;;10.88;3.20;;;26.30;99.90;;;;;;5032054;28;20333;-58
2022/10/29 12:21:26;;;;;;;9.68;3.55;;;26.40;99.90;;;;;;5031990;28;20240;-57
2022/10/29 12:24:02;;;;;;;12.20;3.20;;;26.50;99.90;;;;;;5031509;28;20487;-57
2022/10/29 12:26:35;;;;;;;12.45;3.60;;;26.50;99.90;;;;;;5032455;28;20213;-58
2022/10/29 12:29:11;;;;;;;11.95;3.15;;;26.50;99.90;;;;;;5032880;28;20217;-58
2022/10/29 12:31:46;;;;;;;8.13;3.20;;;26.60;99.90;;;;;;5032633;28;20222;-57
2022/10/29 12:34:21;;;;;;;8.52;3.22;;;26.70;99.90;;;;;;5033611;28;20284;-58
2022/10/29 12:36:54;;;;;;;9.57;3.45;;;26.80;99.90;;;;;;5032523;28;20221;-57
2022/10/29 12:39:28;;;;;;;12.15;5.07;;;26.90;99.90;;;;;;5033901;28;20238;-58
2022/10/29 12:42:01;;;;;;;8.43;3.47;;;27.00;99.90;;;;;;5032817;28;20232;-57
2022/10/29 12:44:37;;;;;;;10.52;2.80;;;27.10;99.90;;;;;;5033090;28;20293;-58
2022/10/29 12:47:11;;;;;;;12.48;3.45;;;27.20;99.90;;;;;;5032499;28;20229;-57
2022/10/29 12:49:51;;;;;;;11.13;3.13;;;27.30;99.90;;;;;;5032815;28;20210;-57
2022/10/29 12:52:24;;;;;;;12.07;3.70;;;27.40;99.90;;;;;;5032930;28;20238;-56
2022/10/29 12:54:53;;;;;;;12.88;3.75;;;27.40;99.90;;;;;;5033536;28;20207;-57
2022/10/29 12:57:29;;;;;;;12.77;3.92;;;27.50;99.90;;;;;;5032519;28;20213;-58